createdAt,value
2019-01-12T00:01:12.403Z,102762.52
2019-01-12T00:04:15.908Z,102759.14
2019-01-12T00:07:19.346Z,102767.13
2019-01-12T00:10:22.765Z,102766.59
2019-01-12T00:13:26.389Z,102771.76
2019-01-12T00:16:29.778Z,102768.23
2019-01-12T00:19:33.161Z,102768.51
2019-01-12T00:22:36.623Z,102768.23
2019-01-12T00:25:39.990Z,102768.98
2019-01-12T00:28:43.424Z,102771.21
2019-01-12T00:31:46.805Z,102766.41
2019-01-12T00:34:50.157Z,102763.42
2019-01-12T00:37:53.627Z,102763.19
2019-01-12T00:40:56.994Z,102763.59
2019-01-12T00:44:00.394Z,102764.68
2019-01-12T00:47:03.837Z,102766.88
2019-01-12T00:50:09.228Z,102765.81
2019-01-12T00:53:12.677Z,102766.71
2019-01-12T00:56:16.070Z,102763.65
2019-01-12T00:59:19.414Z,102761.99
2019-01-12T01:02:22.881Z,102761.64
2019-01-12T01:05:26.280Z,102766.14
2019-01-12T01:08:29.681Z,102766.46
2019-01-12T01:11:33.139Z,102766.85
2019-01-12T01:14:36.596Z,102769.89
2019-01-12T01:17:40.058Z,102774.47
2019-01-12T01:20:43.501Z,102778.08
2019-01-12T01:23:46.897Z,102781.86
2019-01-12T01:26:50.361Z,102786.03
2019-01-12T01:29:53.916Z,102785.52
2019-01-12T01:32:57.457Z,102792.22
2019-01-12T01:36:00.859Z,102793.91
2019-01-12T01:39:06.622Z,102788.23
2019-01-12T01:42:10.065Z,102789.29
2019-01-12T01:45:14.100Z,102794.47
2019-01-12T01:48:17.531Z,102801.65
2019-01-12T01:51:20.979Z,102799.47
2019-01-12T01:54:24.339Z,102795.34
2019-01-12T01:57:27.858Z,102797.76
2019-01-12T02:00:31.282Z,102799.33
2019-01-12T02:03:34.676Z,102797.40
2019-01-12T02:06:38.051Z,102803.85
2019-01-12T02:09:41.490Z,102804.74
2019-01-12T02:12:44.988Z,102797.97
2019-01-12T02:15:48.346Z,102798.56
2019-01-12T02:18:51.766Z,102802.22
2019-01-12T02:21:55.156Z,102803.74
2019-01-12T02:25:00.142Z,102799.73
2019-01-12T02:28:02.283Z,102795.72
2019-01-12T02:31:05.770Z,102802.33
2019-01-12T02:34:09.222Z,102798.89
2019-01-12T02:37:12.686Z,102792.65
2019-01-12T02:40:16.201Z,102798.37
2019-01-12T02:43:19.569Z,102799.41
2019-01-12T02:46:22.969Z,102795.94
2019-01-12T02:49:26.379Z,102786.49
2019-01-12T02:52:29.825Z,102787.69
2019-01-12T02:55:33.271Z,102787.29
2019-01-12T02:58:36.704Z,102788.33
2019-01-12T03:01:40.147Z,102783.78
2019-01-12T03:04:43.614Z,102784.82
2019-01-12T03:07:47.040Z,102786.03
2019-01-12T03:10:50.513Z,102781.79
2019-01-12T03:13:53.901Z,102779.57
2019-01-12T03:16:57.354Z,102780.64
2019-01-12T03:20:00.895Z,102776.49
2019-01-12T03:23:04.463Z,102775.27
2019-01-12T03:26:07.926Z,102770.03
2019-01-12T03:29:11.403Z,102773.99
2019-01-12T03:32:14.764Z,102771.99
2019-01-12T03:35:18.197Z,102767.88
2019-01-12T03:38:21.632Z,102765.52
2019-01-12T03:41:25.006Z,102767.78
2019-01-12T03:44:28.442Z,102766.59
2019-01-12T03:47:31.906Z,102763.56
2019-01-12T03:50:35.286Z,102765.90
2019-01-12T03:53:38.692Z,102764.29
2019-01-12T03:56:42.125Z,102763.09
2019-01-12T03:59:45.551Z,102767.30
2019-01-12T04:02:48.922Z,102765.45
2019-01-12T04:05:52.423Z,102764.23
2019-01-12T04:08:55.811Z,102770.88
2019-01-12T04:11:59.168Z,102763.16
2019-01-12T04:15:02.625Z,102761.13
2019-01-12T04:18:06.046Z,102754.43
2019-01-12T04:21:09.404Z,102756.80
2019-01-12T04:24:12.822Z,102756.25
2019-01-12T04:27:16.221Z,102756.55
2019-01-12T04:30:19.274Z,102756.77
2019-01-12T04:33:22.720Z,102756.17
2019-01-12T04:36:26.106Z,102754.77
2019-01-12T04:39:29.553Z,102755.42
2019-01-12T04:42:32.907Z,102751.31
2019-01-12T04:45:36.338Z,102751.31
2019-01-12T04:48:39.700Z,102747.94
2019-01-12T04:51:43.173Z,102748.57
2019-01-12T04:54:46.673Z,102748.61
2019-01-12T04:57:50.190Z,102743.43
2019-01-12T05:00:53.657Z,102739.08
2019-01-12T05:03:57.088Z,102736.51
2019-01-12T05:07:00.565Z,102731.54
2019-01-12T05:10:04.164Z,102736.13
2019-01-12T05:13:07.587Z,102737.85
2019-01-12T05:16:11.166Z,102739.86
2019-01-12T05:19:14.677Z,102732.66
2019-01-12T05:22:18.109Z,102728.35
2019-01-12T05:25:21.637Z,102728.02
2019-01-12T05:28:25.119Z,102722.71
2019-01-12T05:31:28.614Z,102727.65
2019-01-12T05:34:32.108Z,102725.89
2019-01-12T05:37:35.622Z,102733.75
2019-01-12T05:40:39.171Z,102735.88
2019-01-12T05:43:42.839Z,102737.23
2019-01-12T05:46:46.468Z,102732.53
2019-01-12T05:49:49.931Z,102734.67
2019-01-12T05:52:53.615Z,102733.26
2019-01-12T05:55:59.164Z,102735.28
2019-01-12T05:59:00.945Z,102732.78
2019-01-12T06:02:04.588Z,102725.25
2019-01-12T06:05:08.197Z,102729.88
2019-01-12T06:08:15.665Z,102734.42
2019-01-12T06:11:19.320Z,102732.20
2019-01-12T06:14:22.901Z,102739.71
2019-01-12T06:17:26.548Z,102735.75
2019-01-12T06:20:30.378Z,102738.09
2019-01-12T06:23:33.907Z,102732.36
2019-01-12T06:26:37.560Z,102732.46
2019-01-12T06:29:40.998Z,102734.60
2019-01-12T06:32:45.480Z,102734.72
2019-01-12T06:35:49.126Z,102731.63
2019-01-12T06:38:56.163Z,102739.86
2019-01-12T06:41:59.586Z,102741.48
2019-01-12T06:45:03.065Z,102739.57
2019-01-12T06:48:06.497Z,102737.97
2019-01-12T06:51:10.922Z,102735.46
2019-01-12T06:54:14.410Z,102732.62
2019-01-12T06:57:17.887Z,102736.25
2019-01-12T07:00:21.370Z,102736.52
2019-01-12T07:03:24.852Z,102739.70
2019-01-12T07:06:28.226Z,102740.60
2019-01-12T07:09:31.674Z,102743.29
2019-01-12T07:12:35.197Z,102744.78
2019-01-12T07:15:38.746Z,102738.18
2019-01-12T07:18:42.126Z,102740.60
2019-01-12T07:21:45.631Z,102738.38
2019-01-12T07:24:49.040Z,102733.14
2019-01-12T07:27:52.538Z,102734.21
2019-01-12T07:30:56.016Z,102731.63
2019-01-12T07:33:59.515Z,102736.40
2019-01-12T07:37:03.098Z,102739.03
2019-01-12T07:40:06.889Z,102743.80
2019-01-12T07:43:10.296Z,102745.14
2019-01-12T07:46:13.776Z,102742.09
2019-01-12T07:49:17.134Z,102746.32
2019-01-12T07:52:20.564Z,102753.31
2019-01-12T07:55:24.177Z,102751.88
2019-01-12T07:58:27.579Z,102754.39
2019-01-12T08:01:33.075Z,102760.74
2019-01-12T08:04:36.556Z,102760.55
2019-01-12T08:07:40.022Z,102765.23
2019-01-12T08:10:43.740Z,102760.66
2019-01-12T08:13:47.213Z,102762.46
2019-01-12T08:16:50.613Z,102762.37
2019-01-12T08:19:54.091Z,102756.52
2019-01-12T08:22:57.601Z,102758.52
2019-01-12T08:26:01.138Z,102757.52
2019-01-12T08:29:04.649Z,102754.99
2019-01-12T08:32:08.149Z,102757.12
2019-01-12T08:35:11.636Z,102757.75
2019-01-12T08:38:15.318Z,102753.12
2019-01-12T08:41:22.657Z,102753.45
2019-01-12T08:44:26.455Z,102746.05
2019-01-12T08:47:30.051Z,102741.43
2019-01-12T08:50:33.496Z,102746.01
2019-01-12T08:53:36.957Z,102744.67
2019-01-12T08:56:40.433Z,102747.44
2019-01-12T08:59:43.932Z,102740.34
2019-01-12T09:02:47.470Z,102743.64
2019-01-12T09:05:51.048Z,102733.70
2019-01-12T09:08:54.771Z,102729.74
2019-01-12T09:11:58.402Z,102734.66
2019-01-12T09:15:03.087Z,102738.38
2019-01-12T09:18:06.635Z,102732.86
2019-01-12T09:21:10.259Z,102729.41
2019-01-12T09:24:13.941Z,102728.98
2019-01-12T09:27:17.445Z,102732.57
2019-01-12T09:30:22.074Z,102725.82
2019-01-12T09:33:25.648Z,102726.09
2019-01-12T09:39:59.590Z,102721.62
2019-01-12T09:46:36.679Z,102701.86
2019-01-12T09:49:40.195Z,102689.73
2019-01-12T09:52:45.422Z,102692.09
2019-01-12T09:55:48.899Z,102685.11
2019-01-12T09:58:57.660Z,102679.58
2019-01-12T10:02:02.931Z,102670.19
2019-01-12T10:08:40.242Z,102664.00
2019-01-12T10:11:43.698Z,102668.22
2019-01-12T10:14:48.228Z,102656.06
2019-01-12T10:17:55.268Z,102647.16
2019-01-12T10:21:00.089Z,102637.44
2019-01-12T10:24:04.346Z,102631.22
2019-01-12T10:27:11.954Z,102625.60
2019-01-12T10:30:20.490Z,102620.53
2019-01-12T10:33:26.087Z,102614.97
2019-01-12T10:36:29.499Z,102621.25
2019-01-12T10:39:33.829Z,102615.96
2019-01-12T10:42:38.707Z,102627.40
2019-01-12T10:45:43.374Z,102626.46
2019-01-12T10:48:47.084Z,102619.71
2019-01-12T10:51:51.612Z,102607.70
2019-01-12T10:54:56.188Z,102624.63
2019-01-12T10:58:00.485Z,102640.70
2019-01-12T11:01:04.188Z,102640.96
2019-01-12T11:04:09.058Z,102639.02
2019-01-12T11:07:18.242Z,102627.79
2019-01-12T11:10:21.662Z,102602.82
2019-01-12T11:13:25.166Z,102602.94
2019-01-12T11:16:28.685Z,102593.66
2019-01-12T11:19:32.237Z,102582.82
2019-01-12T11:22:35.805Z,102569.24
2019-01-12T11:25:43.057Z,102554.47
2019-01-12T11:28:43.196Z,102548.59
2019-01-12T11:31:47.430Z,102541.76
2019-01-12T11:34:51.027Z,102532.19
2019-01-12T11:37:54.732Z,102519.49
2019-01-12T11:40:58.466Z,102514.93
2019-01-12T11:44:02.088Z,102511.08
2019-01-12T11:47:05.799Z,102513.35
2019-01-12T11:50:12.059Z,102516.33
2019-01-12T11:53:15.576Z,102519.30
2019-01-12T11:56:20.211Z,102512.94
2019-01-12T11:59:23.979Z,102518.49
2019-01-12T12:02:27.602Z,102516.08
2019-01-12T12:05:31.417Z,102511.85
2019-01-12T12:08:35.207Z,102517.24
2019-01-12T12:11:38.905Z,102508.35
2019-01-12T12:14:42.522Z,102502.25
2019-01-12T12:17:46.971Z,102504.95
2019-01-12T12:20:50.569Z,102501.75
2019-01-12T12:23:54.031Z,102493.28
2019-01-12T12:26:57.561Z,102482.88
2019-01-12T12:30:01.112Z,102477.95
2019-01-12T12:33:04.587Z,102473.44
2019-01-12T12:36:08.109Z,102464.47
2019-01-12T12:39:11.699Z,102453.71
2019-01-12T12:42:15.330Z,102450.30
2019-01-12T12:45:21.212Z,102447.32
2019-01-12T12:48:25.596Z,102442.09
2019-01-12T12:51:29.095Z,102441.83
2019-01-12T12:54:32.605Z,102428.74
2019-01-12T12:57:36.114Z,102432.44
2019-01-12T13:00:39.716Z,102422.32
2019-01-12T13:03:43.384Z,102420.20
2019-01-12T13:06:46.880Z,102411.53
2019-01-12T13:09:50.584Z,102397.41
2019-01-12T13:12:54.174Z,102385.08
2019-01-12T13:15:57.740Z,102376.85
2019-01-12T13:19:06.784Z,102368.75
2019-01-12T13:22:10.218Z,102368.61
2019-01-12T13:25:13.783Z,102365.66
2019-01-12T13:28:17.305Z,102360.46
2019-01-12T13:31:20.826Z,102369.06
2019-01-12T13:34:24.350Z,102353.02
2019-01-12T13:37:27.844Z,102361.10
2019-01-12T13:40:31.300Z,102348.41
2019-01-12T13:43:34.788Z,102342.55
2019-01-12T13:46:38.260Z,102330.34
2019-01-12T13:49:41.711Z,102319.32
2019-01-12T13:52:45.266Z,102316.41
2019-01-12T13:55:48.736Z,102300.42
2019-01-12T13:58:52.182Z,102294.61
2019-01-12T14:01:55.724Z,102306.62
2019-01-12T14:04:59.195Z,102292.29
2019-01-12T14:08:02.730Z,102284.18
2019-01-12T14:11:06.226Z,102276.24
2019-01-12T14:14:09.680Z,102284.97
2019-01-12T14:17:13.278Z,102291.94
2019-01-12T14:20:20.291Z,102289.34
2019-01-12T14:23:23.808Z,102284.25
2019-01-12T14:26:27.363Z,102288.23
2019-01-12T14:29:30.914Z,102286.22
2019-01-12T14:32:34.506Z,102281.44
2019-01-12T14:35:38.186Z,102282.06
2019-01-12T14:38:41.754Z,102279.11
2019-01-12T14:41:45.321Z,102285.93
2019-01-12T14:44:49.414Z,102279.72
2019-01-12T14:47:52.883Z,102266.58
2019-01-12T14:50:58.747Z,102263.02
2019-01-12T14:54:02.297Z,102260.77
2019-01-12T14:57:05.796Z,102242.29
2019-01-12T15:00:14.025Z,102245.97
2019-01-12T15:03:17.628Z,102238.03
2019-01-12T15:06:21.278Z,102230.45
2019-01-12T15:09:24.905Z,102236.71
2019-01-12T15:12:28.366Z,102224.75
2019-01-12T15:15:31.954Z,102200.81
2019-01-12T15:18:35.611Z,102192.21
2019-01-12T15:21:39.213Z,102182.96
2019-01-12T15:24:42.733Z,102181.19
2019-01-12T15:27:46.312Z,102184.63
2019-01-12T15:30:50.026Z,102168.35
2019-01-12T15:33:53.585Z,102159.61
2019-01-12T15:36:57.167Z,102163.26
2019-01-12T15:40:00.753Z,102147.58
2019-01-12T15:43:04.367Z,102146.59
2019-01-12T15:46:07.990Z,102133.46
2019-01-12T15:49:11.486Z,102126.08
2019-01-12T15:52:15.065Z,102128.07
2019-01-12T15:55:18.603Z,102127.33
2019-01-12T15:58:22.108Z,102121.16
2019-01-12T16:01:25.716Z,102130.82
2019-01-12T16:04:29.311Z,102123.34
2019-01-12T16:07:32.830Z,102125.37
2019-01-12T16:10:36.398Z,102121.84
2019-01-12T16:13:39.833Z,102123.02
2019-01-12T16:16:43.458Z,102119.68
2019-01-12T16:19:47.115Z,102121.44
2019-01-12T16:22:50.895Z,102121.62
2019-01-12T16:25:54.519Z,102114.87
2019-01-12T16:28:58.070Z,102114.74
2019-01-12T16:32:01.670Z,102105.67
2019-01-12T16:35:05.486Z,102104.30
2019-01-12T16:38:09.158Z,102092.51
2019-01-12T16:41:12.635Z,102090.75
2019-01-12T16:44:16.086Z,102080.74
2019-01-12T16:47:19.554Z,102073.72
2019-01-12T16:50:23.055Z,102065.03
2019-01-12T16:53:26.554Z,102078.24
2019-01-12T16:56:30.123Z,102075.00
2019-01-12T16:59:34.583Z,102073.07
2019-01-12T17:02:38.234Z,102069.49
2019-01-12T17:05:41.790Z,102067.38
2019-01-12T17:08:45.251Z,102074.17
2019-01-12T17:11:48.756Z,102069.59
2019-01-12T17:14:52.165Z,102068.76
2019-01-12T17:17:55.692Z,102057.78
2019-01-12T17:20:59.275Z,102060.82
2019-01-12T17:24:02.875Z,102060.11
2019-01-12T17:27:07.562Z,102053.40
2019-01-12T17:30:14.202Z,102048.96
2019-01-12T17:33:17.874Z,102046.89
2019-01-12T17:36:21.590Z,102039.39
2019-01-12T17:39:25.050Z,102038.51
2019-01-12T17:42:29.587Z,102045.73
2019-01-12T17:45:33.103Z,102045.60
2019-01-12T17:48:36.635Z,102021.41
2019-01-12T17:51:40.124Z,102021.68
2019-01-12T17:54:43.694Z,102016.47
2019-01-12T17:57:47.222Z,102021.09
2019-01-12T18:00:51.655Z,102009.90
2019-01-12T18:03:55.174Z,102005.56
2019-01-12T18:06:58.810Z,102006.06
2019-01-12T18:10:02.440Z,102005.54
2019-01-12T18:13:06.141Z,101992.24
2019-01-12T18:16:09.574Z,101989.85
2019-01-12T18:19:13.024Z,101986.25
2019-01-12T18:22:16.549Z,102006.42
2019-01-12T18:25:20.020Z,102010.02
2019-01-12T18:28:23.782Z,102002.20
2019-01-12T18:31:27.290Z,102000.48
2019-01-12T18:34:30.745Z,101987.39
2019-01-12T18:37:34.260Z,101980.01
2019-01-12T18:40:37.865Z,101968.85
2019-01-12T18:43:41.449Z,101971.58
2019-01-12T18:46:45.022Z,101963.50
2019-01-12T18:49:48.465Z,101955.85
2019-01-12T18:52:52.192Z,101958.14
2019-01-12T18:55:55.683Z,101950.43
2019-01-12T18:58:59.270Z,101952.45
2019-01-12T19:02:02.632Z,101953.13
2019-01-12T19:05:06.322Z,101942.82
2019-01-12T19:08:09.772Z,101929.72
2019-01-12T19:11:16.096Z,101924.63
2019-01-12T19:14:19.620Z,101927.85
2019-01-12T19:17:23.196Z,101920.80
2019-01-12T19:20:26.853Z,101923.64
2019-01-12T19:23:30.376Z,101917.03
2019-01-12T19:26:33.906Z,101909.87
2019-01-12T19:29:37.477Z,101910.54
2019-01-12T19:32:41.071Z,101901.78
2019-01-12T19:35:44.710Z,101897.58
2019-01-12T19:38:48.408Z,101905.81
2019-01-12T19:41:54.057Z,101892.85
2019-01-12T19:44:57.662Z,101890.55
2019-01-12T19:48:01.324Z,101884.21
2019-01-12T19:51:04.922Z,101883.64
2019-01-12T19:54:08.513Z,101881.84
2019-01-12T19:57:12.047Z,101876.87
2019-01-12T20:00:17.412Z,101880.07
2019-01-12T20:03:20.951Z,101874.45
2019-01-12T20:06:24.529Z,101878.48
2019-01-12T20:09:28.023Z,101876.36
2019-01-12T20:12:31.611Z,101883.94
2019-01-12T20:15:35.254Z,101865.56
2019-01-12T20:18:38.840Z,101871.06
2019-01-12T20:21:42.310Z,101869.65
2019-01-12T20:24:45.920Z,101884.84
2019-01-12T20:27:49.487Z,101878.63
2019-01-12T20:31:26.489Z,101876.46
2019-01-12T20:34:34.402Z,101867.00
2019-01-12T20:38:05.223Z,101874.17
2019-01-12T20:41:23.372Z,101881.26
2019-01-12T20:44:51.631Z,101873.10
2019-01-12T20:48:10.034Z,101863.34
2019-01-12T20:51:33.309Z,101869.20
2019-01-12T20:54:53.277Z,101873.92
2019-01-12T20:58:12.470Z,101863.62
2019-01-12T21:01:28.855Z,101857.77
2019-01-12T21:05:01.223Z,101847.52
2019-01-12T21:08:13.685Z,101847.28
2019-01-12T21:11:49.264Z,101830.31
2019-01-12T21:14:58.043Z,101820.26
2019-01-12T21:18:01.610Z,101825.02
2019-01-12T21:21:05.087Z,101807.25
2019-01-12T21:24:10.292Z,101809.06
2019-01-12T21:27:13.880Z,101800.14
2019-01-12T21:30:17.678Z,101806.25
2019-01-12T21:33:21.266Z,101810.80
2019-01-12T21:36:25.635Z,101813.24
2019-01-12T21:39:30.456Z,101815.00
2019-01-12T21:42:34.552Z,101807.27
2019-01-12T21:45:39.133Z,101809.10
2019-01-12T21:48:42.775Z,101810.23
2019-01-12T21:51:46.313Z,101806.51
2019-01-12T21:54:50.139Z,101799.28
2019-01-12T21:57:53.684Z,101796.07
2019-01-12T22:00:57.289Z,101796.51
2019-01-12T22:04:00.841Z,101794.33
2019-01-12T22:07:04.449Z,101799.13
2019-01-12T22:10:18.836Z,101803.68
2019-01-12T22:13:15.433Z,101806.93
2019-01-12T22:16:19.041Z,101796.65
2019-01-12T22:19:22.489Z,101796.95
2019-01-12T22:22:26.025Z,101789.84
2019-01-12T22:25:31.900Z,101786.36
2019-01-12T22:28:36.060Z,101785.31
2019-01-12T22:31:39.496Z,101781.75
2019-01-12T22:34:44.548Z,101789.67
2019-01-12T22:37:50.549Z,101785.89
2019-01-12T22:40:54.033Z,101788.99
2019-01-12T22:44:00.380Z,101783.47
2019-01-12T22:47:04.182Z,101781.63
2019-01-12T22:50:09.182Z,101778.54
2019-01-12T22:53:13.834Z,101782.01
2019-01-12T22:56:17.354Z,101778.26
2019-01-12T22:59:21.853Z,101768.83
2019-01-12T23:02:25.476Z,101763.73
2019-01-12T23:05:29.202Z,101759.68
2019-01-12T23:08:32.725Z,101760.18
2019-01-12T23:11:36.921Z,101751.50
2019-01-12T23:14:40.415Z,101753.86
2019-01-12T23:17:44.156Z,101750.77
2019-01-12T23:20:48.198Z,101754.13
2019-01-12T23:23:51.877Z,101752.75
2019-01-12T23:26:55.401Z,101749.75
2019-01-12T23:30:04.726Z,101749.44
2019-01-12T23:33:04.747Z,101746.39
2019-01-12T23:39:44.282Z,101747.32
2019-01-12T23:42:47.884Z,101736.89
2019-01-12T23:45:51.579Z,101729.83
2019-01-12T23:48:56.066Z,101734.14
2019-01-12T23:51:58.979Z,101734.27
2019-01-12T23:55:02.602Z,101728.04
2019-01-12T23:58:06.212Z,101724.23
